Mount Holly, New Jersey
Current Conditions -  °F | °C
As of 5:54 AM on Friday 24 Oct 2014 (Local Time) from KVAY Reporting Station
Overcast Overcast  
Wind Chill: 54°   Ceiling: 3000
Heat Index: 54°   Visibility: 10mi
Dew Point: 45°   Wind: 10mph
Humidity: 72%   Direction: 330°NNW
Pressure: 29.83"   Gusts: NA
Location:  39.99°N, 74.79°W
Report Text: KVAY 240954Z AUTO 33009KT 10SM OVC030 12/07 A2983 RMK AO2 SLP100 T01220072
Loading
Personal Weather Stations






























Interactive Weather Map
Tropical Storm Tracking
New forecast layout! Learn more

10-Day Weather Forecast

Advertisements
Track Severe Weather on mobile